sensor_id;sensor_type;location;lat;lon;timestamp;pressure;altitude;pressure_sealevel;temperature
67509;BMP280;54354;44.724;11.284;2023-02-20T00:01:45;102466.16;;;14.86
67509;BMP280;54354;44.724;11.284;2023-02-20T00:04:11;102461.97;;;14.89
67509;BMP280;54354;44.724;11.284;2023-02-20T00:06:36;102454.34;;;14.87
67509;BMP280;54354;44.724;11.284;2023-02-20T00:09:02;102451.72;;;14.83
67509;BMP280;54354;44.724;11.284;2023-02-20T00:11:28;102449.06;;;14.83
67509;BMP280;54354;44.724;11.284;2023-02-20T00:13:54;102450.16;;;14.86
67509;BMP280;54354;44.724;11.284;2023-02-20T00:16:19;102455.13;;;14.88
67509;BMP280;54354;44.724;11.284;2023-02-20T00:18:45;102459.31;;;14.85
67509;BMP280;54354;44.724;11.284;2023-02-20T00:21:11;102449.00;;;14.87
67509;BMP280;54354;44.724;11.284;2023-02-20T00:23:36;102454.72;;;14.89
67509;BMP280;54354;44.724;11.284;2023-02-20T00:26:02;102468.03;;;14.93
67509;BMP280;54354;44.724;11.284;2023-02-20T00:28:28;102468.03;;;14.93
67509;BMP280;54354;44.724;11.284;2023-02-20T00:30:54;102470.72;;;14.89
67509;BMP280;54354;44.724;11.284;2023-02-20T00:33:20;102481.75;;;14.91
67509;BMP280;54354;44.724;11.284;2023-02-20T00:35:47;102465.34;;;14.93
67509;BMP280;54354;44.724;11.284;2023-02-20T00:38:13;102462.69;;;14.93
67509;BMP280;54354;44.724;11.284;2023-02-20T00:40:38;102463.13;;;14.88
67509;BMP280;54354;44.724;11.284;2023-02-20T00:43:04;102465.41;;;14.85
67509;BMP280;54354;44.724;11.284;2023-02-20T00:45:29;102465.00;;;14.87
67509;BMP280;54354;44.724;11.284;2023-02-20T00:47:55;102460.06;;;14.85
67509;BMP280;54354;44.724;11.284;2023-02-20T00:50:23;102469.22;;;14.84
67509;BMP280;54354;44.724;11.284;2023-02-20T00:52:49;102472.66;;;14.85
67509;BMP280;54354;44.724;11.284;2023-02-20T00:55:16;102474.97;;;14.83
67509;BMP280;54354;44.724;11.284;2023-02-20T00:57:44;102486.41;;;14.80
67509;BMP280;54354;44.724;11.284;2023-02-20T01:00:17;102488.72;;;14.74
67509;BMP280;54354;44.724;11.284;2023-02-20T01:02:43;102481.81;;;14.80
67509;BMP280;54354;44.724;11.284;2023-02-20T01:05:09;102478.81;;;14.78
67509;BMP280;54354;44.724;11.284;2023-02-20T01:07:35;102484.50;;;14.80
67509;BMP280;54354;44.724;11.284;2023-02-20T01:10:00;102498.22;;;14.82
67509;BMP280;54354;44.724;11.284;2023-02-20T01:12:26;102490.97;;;14.83
67509;BMP280;54354;44.724;11.284;2023-02-20T01:14:51;102489.81;;;14.84
67509;BMP280;54354;44.724;11.284;2023-02-20T01:17:17;102498.22;;;14.82
67509;BMP280;54354;44.724;11.284;2023-02-20T01:19:43;102497.47;;;14.82
67509;BMP280;54354;44.724;11.284;2023-02-20T01:22:08;102502.78;;;14.82
67509;BMP280;54354;44.724;11.284;2023-02-20T01:24:34;102495.50;;;14.86
67509;BMP280;54354;44.724;11.284;2023-02-20T01:27:00;102504.63;;;14.92
67509;BMP280;54354;44.724;11.284;2023-02-20T01:29:25;102498.50;;;14.95
67509;BMP280;54354;44.724;11.284;2023-02-20T01:31:51;102497.00;;;14.94
67509;BMP280;54354;44.724;11.284;2023-02-20T01:34:18;102498.16;;;14.93
67509;BMP280;54354;44.724;11.284;2023-02-20T01:36:46;102493.56;;;14.94
67509;BMP280;54354;44.724;11.284;2023-02-20T01:39:11;102497.38;;;14.93
67509;BMP280;54354;44.724;11.284;2023-02-20T01:41:37;102501.59;;;14.94
67509;BMP280;54354;44.724;11.284;2023-02-20T01:44:02;102502.72;;;14.93
67509;BMP280;54354;44.724;11.284;2023-02-20T01:51:25;102500.38;;;14.98
67509;BMP280;54354;44.724;11.284;2023-02-20T01:53:52;102500.00;;;15.00
67509;BMP280;54354;44.724;11.284;2023-02-20T01:56:17;102497.72;;;14.98
67509;BMP280;54354;44.724;11.284;2023-02-20T01:58:44;102498.16;;;14.90
67509;BMP280;54354;44.724;11.284;2023-02-20T02:01:11;102509.22;;;14.88
67509;BMP280;54354;44.724;11.284;2023-02-20T02:03:40;102513.06;;;14.83
67509;BMP280;54354;44.724;11.284;2023-02-20T02:06:11;102517.25;;;14.81
67509;BMP280;54354;44.724;11.284;2023-02-20T02:08:39;102511.91;;;14.81
67509;BMP280;54354;44.724;11.284;2023-02-20T02:11:07;102514.59;;;14.81
67509;BMP280;54354;44.724;11.284;2023-02-20T02:13:36;102508.53;;;14.73
67509;BMP280;54354;44.724;11.284;2023-02-20T02:24:43;102515.84;;;14.62
67509;BMP280;54354;44.724;11.284;2023-02-20T02:30:09;102513.56;;;14.64
67509;BMP280;54354;44.724;11.284;2023-02-20T02:37:55;102528.03;;;14.59
67509;BMP280;54354;44.724;11.284;2023-02-20T02:40:34;102525.03;;;14.50
67509;BMP280;54354;44.724;11.284;2023-02-20T02:46:26;102541.00;;;14.57
67509;BMP280;54354;44.724;11.284;2023-02-20T02:48:59;102538.00;;;14.52
67509;BMP280;54354;44.724;11.284;2023-02-20T02:51:33;102542.56;;;14.48
67509;BMP280;54354;44.724;11.284;2023-02-20T02:56:36;102544.06;;;14.52
67509;BMP280;54354;44.724;11.284;2023-02-20T02:59:04;102546.34;;;14.57
67509;BMP280;54354;44.724;11.284;2023-02-20T03:01:30;102550.88;;;14.61
67509;BMP280;54354;44.724;11.284;2023-02-20T03:04:01;102563.88;;;14.55
67509;BMP280;54354;44.724;11.284;2023-02-20T03:06:32;102566.56;;;14.48
67509;BMP280;54354;44.724;11.284;2023-02-20T03:09:03;102570.34;;;14.50
67509;BMP280;54354;44.724;11.284;2023-02-20T03:11:31;102566.91;;;14.53
67509;BMP280;54354;44.724;11.284;2023-02-20T03:16:57;102582.91;;;14.53
67509;BMP280;54354;44.724;11.284;2023-02-20T03:19:31;102569.59;;;14.53
67509;BMP280;54354;44.724;11.284;2023-02-20T03:21:59;102571.09;;;14.58
67509;BMP280;54354;44.724;11.284;2023-02-20T03:24:28;102577.56;;;14.57
67509;BMP280;54354;44.724;11.284;2023-02-20T03:26:58;102574.50;;;14.62
67509;BMP280;54354;44.724;11.284;2023-02-20T03:29:31;102572.22;;;14.57
67509;BMP280;54354;44.724;11.284;2023-02-20T03:32:01;102582.53;;;14.55
67509;BMP280;54354;44.724;11.284;2023-02-20T03:34:49;102581.41;;;14.52
67509;BMP280;54354;44.724;11.284;2023-02-20T03:37:37;102579.13;;;14.47
67509;BMP280;54354;44.724;11.284;2023-02-20T03:40:25;102574.94;;;14.46
67509;BMP280;54354;44.724;11.284;2023-02-20T03:43:13;102580.28;;;14.43
67509;BMP280;54354;44.724;11.284;2023-02-20T03:45:47;102585.22;;;14.48
67509;BMP280;54354;44.724;11.284;2023-02-20T03:48:20;102583.31;;;14.45
67509;BMP280;54354;44.724;11.284;2023-02-20T03:50:47;102585.59;;;14.53
67509;BMP280;54354;44.724;11.284;2023-02-20T03:53:42;102587.84;;;14.55
67509;BMP280;54354;44.724;11.284;2023-02-20T03:56:12;102592.06;;;14.52
67509;BMP280;54354;44.724;11.284;2023-02-20T03:58:43;102602.34;;;14.54
67509;BMP280;54354;44.724;11.284;2023-02-20T04:01:10;102607.25;;;14.63
67509;BMP280;54354;44.724;11.284;2023-02-20T04:03:43;102609.91;;;14.63
67509;BMP280;54354;44.724;11.284;2023-02-20T04:06:10;102610.31;;;14.65
67509;BMP280;54354;44.724;11.284;2023-02-20T04:08:42;102612.22;;;14.57
67509;BMP280;54354;44.724;11.284;2023-02-20T04:11:31;102617.91;;;14.66
67509;BMP280;54354;44.724;11.284;2023-02-20T04:14:00;102612.59;;;14.66
67509;BMP280;54354;44.724;11.284;2023-02-20T04:16:27;102621.72;;;14.65
67509;BMP280;54354;44.724;11.284;2023-02-20T04:18:53;102616.78;;;14.60
67509;BMP280;54354;44.724;11.284;2023-02-20T04:21:32;102603.84;;;14.55
67509;BMP280;54354;44.724;11.284;2023-02-20T04:24:03;102606.56;;;14.51
67509;BMP280;54354;44.724;11.284;2023-02-20T04:26:31;102603.88;;;14.51
67509;BMP280;54354;44.724;11.284;2023-02-20T04:28:57;102614.91;;;14.53
67509;BMP280;54354;44.724;11.284;2023-02-20T04:31:22;102616.03;;;14.59
67509;BMP280;54354;44.724;11.284;2023-02-20T04:33:49;102611.47;;;14.64
67509;BMP280;54354;44.724;11.284;2023-02-20T04:36:19;102619.44;;;14.67
67509;BMP280;54354;44.724;11.284;2023-02-20T04:38:45;102619.06;;;14.65
67509;BMP280;54354;44.724;11.284;2023-02-20T04:41:14;102628.22;;;14.64
67509;BMP280;54354;44.724;11.284;2023-02-20T04:43:40;102634.69;;;14.63
67509;BMP280;54354;44.724;11.284;2023-02-20T04:46:05;102622.88;;;14.61
67509;BMP280;54354;44.724;11.284;2023-02-20T04:48:32;102624.78;;;14.56
67509;BMP280;54354;44.724;11.284;2023-02-20T04:51:00;102627.47;;;14.56
67509;BMP280;54354;44.724;11.284;2023-02-20T04:53:26;102637.75;;;14.58
67509;BMP280;54354;44.724;11.284;2023-02-20T04:55:51;102638.53;;;14.58
67509;BMP280;54354;44.724;11.284;2023-02-20T04:58:20;102632.78;;;14.56
67509;BMP280;54354;44.724;11.284;2023-02-20T05:00:50;102651.06;;;14.62
67509;BMP280;54354;44.724;11.284;2023-02-20T05:03:16;102645.75;;;14.62
67509;BMP280;54354;44.724;11.284;2023-02-20T05:05:41;102638.13;;;14.60
67509;BMP280;54354;44.724;11.284;2023-02-20T05:08:07;102642.69;;;14.59
67509;BMP280;54354;44.724;11.284;2023-02-20T05:10:34;102651.47;;;14.60
67509;BMP280;54354;44.724;11.284;2023-02-20T05:13:00;102654.88;;;14.64
67509;BMP280;54354;44.724;11.284;2023-02-20T05:15:26;102646.09;;;14.67
67509;BMP280;54354;44.724;11.284;2023-02-20T05:17:52;102649.13;;;14.73
67509;BMP280;54354;44.724;11.284;2023-02-20T05:20:18;102646.84;;;14.75
67509;BMP280;54354;44.724;11.284;2023-02-20T05:22:45;102644.56;;;14.77
67509;BMP280;54354;44.724;11.284;2023-02-20T05:25:11;102642.25;;;14.79
67509;BMP280;54354;44.724;11.284;2023-02-20T05:27:36;102651.78;;;14.80
67509;BMP280;54354;44.724;11.284;2023-02-20T05:30:03;102653.28;;;14.81
67509;BMP280;54354;44.724;11.284;2023-02-20T05:32:29;102648.75;;;14.81
67509;BMP280;54354;44.724;11.284;2023-02-20T05:34:56;102652.13;;;14.85
67509;BMP280;54354;44.724;11.284;2023-02-20T05:37:23;102650.25;;;14.82
67509;BMP280;54354;44.724;11.284;2023-02-20T05:39:49;102654.06;;;14.81
67509;BMP280;54354;44.724;11.284;2023-02-20T05:42:15;102648.34;;;14.79
67509;BMP280;54354;44.724;11.284;2023-02-20T05:44:41;102638.47;;;14.76
67509;BMP280;54354;44.724;11.284;2023-02-20T05:47:06;102642.28;;;14.75
67509;BMP280;54354;44.724;11.284;2023-02-20T05:49:33;102657.13;;;14.76
67509;BMP280;54354;44.724;11.284;2023-02-20T05:52:00;102654.06;;;14.81
67509;BMP280;54354;44.724;11.284;2023-02-20T05:54:26;102653.66;;;14.86
67509;BMP280;54354;44.724;11.284;2023-02-20T05:56:51;102662.41;;;14.87
67509;BMP280;54354;44.724;11.284;2023-02-20T05:59:19;102651.38;;;14.85
67509;BMP280;54354;44.724;11.284;2023-02-20T06:01:46;102655.97;;;14.88
67509;BMP280;54354;44.724;11.284;2023-02-20T06:04:11;102660.13;;;14.89
67509;BMP280;54354;44.724;11.284;2023-02-20T06:06:39;102655.19;;;14.88
67509;BMP280;54354;44.724;11.284;2023-02-20T06:09:06;102649.06;;;14.87
67509;BMP280;54354;44.724;11.284;2023-02-20T06:11:33;102649.47;;;14.85
67509;BMP280;54354;44.724;11.284;2023-02-20T06:13:59;102649.06;;;14.87
67509;BMP280;54354;44.724;11.284;2023-02-20T06:16:27;102648.69;;;14.92
67509;BMP280;54354;44.724;11.284;2023-02-20T06:18:53;102645.22;;;14.99
67509;BMP280;54354;44.724;11.284;2023-02-20T06:21:19;102651.34;;;14.99
67509;BMP280;54354;44.724;11.284;2023-02-20T06:23:48;102644.84;;;14.97
67509;BMP280;54354;44.724;11.284;2023-02-20T06:26:15;102647.91;;;14.95
67509;BMP280;54354;44.724;11.284;2023-02-20T06:28:41;102641.81;;;14.95
67509;BMP280;54354;44.724;11.284;2023-02-20T06:31:08;102647.56;;;14.93
67509;BMP280;54354;44.724;11.284;2023-02-20T06:33:34;102642.97;;;14.94
67509;BMP280;54354;44.724;11.284;2023-02-20T06:36:00;102650.94;;;14.97
67509;BMP280;54354;44.724;11.284;2023-02-20T06:38:26;102658.19;;;15.00
67509;BMP280;54354;44.724;11.284;2023-02-20T06:40:52;102665.41;;;15.03
67509;BMP280;54354;44.724;11.284;2023-02-20T06:43:17;102665.00;;;15.08
67509;BMP280;54354;44.724;11.284;2023-02-20T06:45:43;102675.69;;;15.08
67509;BMP280;54354;44.724;11.284;2023-02-20T06:48:09;102687.50;;;15.11
67509;BMP280;54354;44.724;11.284;2023-02-20T06:50:35;102683.28;;;15.13
67509;BMP280;54354;44.724;11.284;2023-02-20T06:53:01;102682.16;;;15.18
67509;BMP280;54354;44.724;11.284;2023-02-20T06:55:26;102690.88;;;15.22
67509;BMP280;54354;44.724;11.284;2023-02-20T06:57:52;102686.28;;;15.23
67509;BMP280;54354;44.724;11.284;2023-02-20T07:00:18;102685.94;;;15.21
67509;BMP280;54354;44.724;11.284;2023-02-20T07:02:43;102693.19;;;15.20
67509;BMP280;54354;44.724;11.284;2023-02-20T07:05:10;102690.88;;;15.22
67509;BMP280;54354;44.724;11.284;2023-02-20T07:07:36;102704.59;;;15.28
67509;BMP280;54354;44.724;11.284;2023-02-20T07:10:03;102707.22;;;15.31
67509;BMP280;54354;44.724;11.284;2023-02-20T07:12:31;102705.31;;;15.35
67509;BMP280;54354;44.724;11.284;2023-02-20T07:14:57;102713.66;;;15.37
67509;BMP280;54354;44.724;11.284;2023-02-20T07:17:23;102725.47;;;15.44
67509;BMP280;54354;44.724;11.284;2023-02-20T07:19:49;102731.16;;;15.49
67509;BMP280;54354;44.724;11.284;2023-02-20T07:22:14;102729.63;;;15.52
67509;BMP280;54354;44.724;11.284;2023-02-20T07:24:40;102730.00;;;15.57
67509;BMP280;54354;44.724;11.284;2023-02-20T07:27:07;102732.63;;;15.61
67509;BMP280;54354;44.724;11.284;2023-02-20T07:29:35;102730.72;;;15.65
67509;BMP280;54354;44.724;11.284;2023-02-20T07:32:02;102738.28;;;15.70
67509;BMP280;54354;44.724;11.284;2023-02-20T07:34:27;102735.25;;;15.75
67509;BMP280;54354;44.724;11.284;2023-02-20T07:36:53;102729.09;;;15.78
67509;BMP280;54354;44.724;11.284;2023-02-20T08:48:58;102751.78;;;16.56
67509;BMP280;54354;44.724;11.284;2023-02-20T08:51:24;102749.16;;;16.83
67509;BMP280;54354;44.724;11.284;2023-02-20T08:53:50;102750.09;;;17.03
67509;BMP280;54354;44.724;11.284;2023-02-20T08:56:18;102744.16;;;17.19
67509;BMP280;54354;44.724;11.284;2023-02-20T08:58:43;102747.78;;;17.36
67509;BMP280;54354;44.724;11.284;2023-02-20T09:01:09;102751.00;;;17.51
67509;BMP280;54354;44.724;11.284;2023-02-20T09:03:34;102753.88;;;17.64
67509;BMP280;54354;44.724;11.284;2023-02-20T09:06:04;102754.94;;;17.73
67509;BMP280;54354;44.724;11.284;2023-02-20T09:08:29;102757.72;;;17.90
67509;BMP280;54354;44.724;11.284;2023-02-20T09:10:55;102757.16;;;18.02
67509;BMP280;54354;44.724;11.284;2023-02-20T09:13:20;102749.38;;;18.07
67509;BMP280;54354;44.724;11.284;2023-02-20T09:15:46;102762.41;;;18.09
67509;BMP280;54354;44.724;11.284;2023-02-20T09:18:13;102754.34;;;18.09
67509;BMP280;54354;44.724;11.284;2023-02-20T09:20:39;102764.28;;;18.12
67509;BMP280;54354;44.724;11.284;2023-02-20T09:23:06;102755.31;;;18.19
67509;BMP280;54354;44.724;11.284;2023-02-20T09:25:32;102760.97;;;18.24
67509;BMP280;54354;44.724;11.284;2023-02-20T09:27:58;102747.44;;;18.31
67509;BMP280;54354;44.724;11.284;2023-02-20T09:30:23;102751.84;;;18.41
67509;BMP280;54354;44.724;11.284;2023-02-20T09:32:49;102748.28;;;18.48
67509;BMP280;54354;44.724;11.284;2023-02-20T09:35:23;102755.09;;;18.53
67509;BMP280;54354;44.724;11.284;2023-02-20T09:37:49;102754.06;;;18.66
67509;BMP280;54354;44.724;11.284;2023-02-20T09:40:16;102752.34;;;18.76
67509;BMP280;54354;44.724;11.284;2023-02-20T09:45:32;102760.66;;;19.02
67509;BMP280;54354;44.724;11.284;2023-02-20T09:48:17;102760.09;;;19.10
67509;BMP280;54354;44.724;11.284;2023-02-20T09:50:56;102760.31;;;19.16
67509;BMP280;54354;44.724;11.284;2023-02-20T09:56:00;102750.72;;;19.35
67509;BMP280;54354;44.724;11.284;2023-02-20T10:01:28;102757.09;;;19.57
67509;BMP280;54354;44.724;11.284;2023-02-20T10:03:57;102762.38;;;19.61
67509;BMP280;54354;44.724;11.284;2023-02-20T10:06:29;102761.91;;;19.66
67509;BMP280;54354;44.724;11.284;2023-02-20T10:08:55;102760.47;;;19.77
67509;BMP280;54354;44.724;11.284;2023-02-20T10:19:35;102749.03;;;19.90
67509;BMP280;54354;44.724;11.284;2023-02-20T10:22:10;102750.56;;;19.91
67509;BMP280;54354;44.724;11.284;2023-02-20T10:30:22;102745.91;;;19.91
67509;BMP280;54354;44.724;11.284;2023-02-20T10:35:44;102742.31;;;19.98
67509;BMP280;54354;44.724;11.284;2023-02-20T10:38:15;102734.56;;;20.00
67509;BMP280;54354;44.724;11.284;2023-02-20T10:40:52;102734.88;;;20.02
67509;BMP280;54354;44.724;11.284;2023-02-20T10:43:32;102736.31;;;20.06
67509;BMP280;54354;44.724;11.284;2023-02-20T10:46:25;102738.78;;;20.13
67509;BMP280;54354;44.724;11.284;2023-02-20T10:48:56;102737.31;;;20.12
67509;BMP280;54354;44.724;11.284;2023-02-20T10:51:38;102743.47;;;20.26
67509;BMP280;54354;44.724;11.284;2023-02-20T10:54:11;102739.94;;;20.29
67509;BMP280;54354;44.724;11.284;2023-02-20T10:56:44;102738.56;;;20.37
67509;BMP280;54354;44.724;11.284;2023-02-20T10:59:28;102733.53;;;20.52
67509;BMP280;54354;44.724;11.284;2023-02-20T11:01:55;102728.72;;;20.59
67509;BMP280;54354;44.724;11.284;2023-02-20T11:04:36;102732.06;;;20.63
67509;BMP280;54354;44.724;11.284;2023-02-20T11:07:13;102720.00;;;20.68
67509;BMP280;54354;44.724;11.284;2023-02-20T11:09:40;102720.75;;;20.68
67509;BMP280;54354;44.724;11.284;2023-02-20T11:12:07;102722.25;;;20.69
67509;BMP280;54354;44.724;11.284;2023-02-20T11:17:16;102715.38;;;20.81
67509;BMP280;54354;44.724;11.284;2023-02-20T11:19:48;102706.75;;;20.86
67509;BMP280;54354;44.724;11.284;2023-02-20T11:22:16;102702.47;;;20.89
67509;BMP280;54354;44.724;11.284;2023-02-20T11:24:45;102706.22;;;20.91
67509;BMP280;54354;44.724;11.284;2023-02-20T11:27:22;102695.34;;;20.95
67509;BMP280;54354;44.724;11.284;2023-02-20T11:30:00;102688.66;;;20.99
67509;BMP280;54354;44.724;11.284;2023-02-20T11:32:29;102701.59;;;21.05
67509;BMP280;54354;44.724;11.284;2023-02-20T11:37:51;102687.97;;;21.21
67509;BMP280;54354;44.724;11.284;2023-02-20T11:40:36;102690.31;;;21.32
67509;BMP280;54354;44.724;11.284;2023-02-20T11:43:38;102683.75;;;21.33
67509;BMP280;54354;44.724;11.284;2023-02-20T11:46:22;102685.53;;;21.48
67509;BMP280;54354;44.724;11.284;2023-02-20T11:49:25;102678.72;;;21.56
67509;BMP280;54354;44.724;11.284;2023-02-20T11:51:50;102674.75;;;21.48
67509;BMP280;54354;44.724;11.284;2023-02-20T11:57:03;102661.59;;;21.50
67509;BMP280;54354;44.724;11.284;2023-02-20T11:59:38;102671.19;;;21.51
67509;BMP280;54354;44.724;11.284;2023-02-20T12:05:00;102655.97;;;21.57
67509;BMP280;54354;44.724;11.284;2023-02-20T12:07:28;102649.38;;;21.58
67509;BMP280;54354;44.724;11.284;2023-02-20T12:09:58;102642.03;;;21.59
67509;BMP280;54354;44.724;11.284;2023-02-20T12:12:27;102644.00;;;21.58
67509;BMP280;54354;44.724;11.284;2023-02-20T12:14:55;102633.94;;;21.59
67509;BMP280;54354;44.724;11.284;2023-02-20T12:20:11;102628.06;;;21.51
67509;BMP280;54354;44.724;11.284;2023-02-20T12:22:44;102612.72;;;21.48
67509;BMP280;54354;44.724;11.284;2023-02-20T12:30:35;102605.22;;;21.43
67509;BMP280;54354;44.724;11.284;2023-02-20T12:33:32;102598.97;;;21.46
67509;BMP280;54354;44.724;11.284;2023-02-20T12:36:18;102591.22;;;21.36
67509;BMP280;54354;44.724;11.284;2023-02-20T12:38:56;102590.72;;;21.28
67509;BMP280;54354;44.724;11.284;2023-02-20T12:44:13;102580.31;;;21.17
67509;BMP280;54354;44.724;11.284;2023-02-20T13:00:47;102548.28;;;21.19
67509;BMP280;54354;44.724;11.284;2023-02-20T13:03:22;102544.53;;;21.17
67509;BMP280;54354;44.724;11.284;2023-02-20T13:05:50;102543.78;;;21.16
67509;BMP280;54354;44.724;11.284;2023-02-20T13:08:20;102544.19;;;21.15
67509;BMP280;54354;44.724;11.284;2023-02-20T13:11:14;102540.19;;;21.19
67509;BMP280;54354;44.724;11.284;2023-02-20T13:16:40;102529.25;;;21.14
67509;BMP280;54354;44.724;11.284;2023-02-20T13:22:19;102524.59;;;21.14
67509;BMP280;54354;44.724;11.284;2023-02-20T13:24:45;102530.53;;;21.09
67509;BMP280;54354;44.724;11.284;2023-02-20T13:27:26;102524.72;;;21.11
67509;BMP280;54354;44.724;11.284;2023-02-20T13:29:59;102517.50;;;21.08
67509;BMP280;54354;44.724;11.284;2023-02-20T13:32:29;102514.06;;;21.07
67509;BMP280;54354;44.724;11.284;2023-02-20T13:40:38;102505.72;;;21.14
67509;BMP280;54354;44.724;11.284;2023-02-20T13:46:07;102497.97;;;21.16
67509;BMP280;54354;44.724;11.284;2023-02-20T13:48:42;102499.03;;;21.19
67509;BMP280;54354;44.724;11.284;2023-02-20T13:56:44;102493.06;;;21.24
67509;BMP280;54354;44.724;11.284;2023-02-20T13:59:16;102493.66;;;21.19
67509;BMP280;54354;44.724;11.284;2023-02-20T14:04:26;102484.06;;;21.18
67509;BMP280;54354;44.724;11.284;2023-02-20T14:06:54;102478.91;;;21.11
67509;BMP280;54354;44.724;11.284;2023-02-20T14:09:26;102486.81;;;21.05
67509;BMP280;54354;44.724;11.284;2023-02-20T14:12:03;102485.72;;;21.02
67509;BMP280;54354;44.724;11.284;2023-02-20T14:14:43;102487.66;;;21.02
67509;BMP280;54354;44.724;11.284;2023-02-20T14:17:15;102488.34;;;20.93
67509;BMP280;54354;44.724;11.284;2023-02-20T14:19:48;102482.03;;;20.87
67509;BMP280;54354;44.724;11.284;2023-02-20T14:24:59;102482.03;;;20.87
67509;BMP280;54354;44.724;11.284;2023-02-20T14:27:26;102478.59;;;20.87
67509;BMP280;54354;44.724;11.284;2023-02-20T14:30:21;102478.94;;;20.89
67509;BMP280;54354;44.724;11.284;2023-02-20T14:32:50;102478.59;;;20.87
67509;BMP280;54354;44.724;11.284;2023-02-20T14:35:53;102478.47;;;20.90
67509;BMP280;54354;44.724;11.284;2023-02-20T14:41:49;102466.81;;;20.93
67509;BMP280;54354;44.724;11.284;2023-02-20T14:44:16;102466.94;;;20.90
67509;BMP280;54354;44.724;11.284;2023-02-20T14:46:43;102467.81;;;20.87
67509;BMP280;54354;44.724;11.284;2023-02-20T14:49:11;102464.47;;;20.83
67509;BMP280;54354;44.724;11.284;2023-02-20T14:51:37;102465.34;;;20.80
67509;BMP280;54354;44.724;11.284;2023-02-20T14:54:20;102457.72;;;20.78
67509;BMP280;54354;44.724;11.284;2023-02-20T14:56:47;102453.22;;;20.75
67509;BMP280;54354;44.724;11.284;2023-02-20T15:01:52;102453.13;;;20.66
67509;BMP280;54354;44.724;11.284;2023-02-20T15:04:20;102449.69;;;20.65
67509;BMP280;54354;44.724;11.284;2023-02-20T15:06:49;102440.22;;;20.61
67509;BMP280;54354;44.724;11.284;2023-02-20T15:09:16;102448.63;;;20.63
67509;BMP280;54354;44.724;11.284;2023-02-20T15:11:47;102446.47;;;20.58
67509;BMP280;54354;44.724;11.284;2023-02-20T15:14:19;102446.91;;;20.56
67509;BMP280;54354;44.724;11.284;2023-02-20T15:16:45;102452.16;;;20.60
67509;BMP280;54354;44.724;11.284;2023-02-20T15:19:37;102448.50;;;20.66
67509;BMP280;54354;44.724;11.284;2023-02-20T15:22:03;102444.72;;;20.64
67509;BMP280;54354;44.724;11.284;2023-02-20T15:24:38;102442.16;;;20.60
67509;BMP280;54354;44.724;11.284;2023-02-20T15:29:33;102440.41;;;20.66
67509;BMP280;54354;44.724;11.284;2023-02-20T15:32:01;102439.16;;;20.58
67509;BMP280;54354;44.724;11.284;2023-02-20T15:34:36;102440.22;;;20.61
67509;BMP280;54354;44.724;11.284;2023-02-20T15:37:30;102439.03;;;20.62
67509;BMP280;54354;44.724;11.284;2023-02-20T15:40:25;102435.28;;;20.59
67509;BMP280;54354;44.724;11.284;2023-02-20T15:42:51;102440.97;;;20.61
67509;BMP280;54354;44.724;11.284;2023-02-20T15:45:22;102433.00;;;20.58
67509;BMP280;54354;44.724;11.284;2023-02-20T15:47:48;102442.28;;;20.57
67509;BMP280;54354;44.724;11.284;2023-02-20T15:50:13;102433.47;;;20.56
67509;BMP280;54354;44.724;11.284;2023-02-20T15:52:39;102430.44;;;20.54
67509;BMP280;54354;44.724;11.284;2023-02-20T15:55:05;102439.28;;;20.55
67509;BMP280;54354;44.724;11.284;2023-02-20T15:57:32;102436.16;;;20.56
67509;BMP280;54354;44.724;11.284;2023-02-20T15:59:57;102436.16;;;20.56
67509;BMP280;54354;44.724;11.284;2023-02-20T16:02:23;102438.06;;;20.56
67509;BMP280;54354;44.724;11.284;2023-02-20T16:04:50;102428.63;;;20.51
67509;BMP280;54354;44.724;11.284;2023-02-20T16:07:18;102434.44;;;20.50
67509;BMP280;54354;44.724;11.284;2023-02-20T16:09:44;102427.97;;;20.47
67509;BMP280;54354;44.724;11.284;2023-02-20T16:12:23;102435.75;;;20.45
67509;BMP280;54354;44.724;11.284;2023-02-20T16:14:49;102435.22;;;20.50
67509;BMP280;54354;44.724;11.284;2023-02-20T16:17:26;102433.59;;;20.40
67509;BMP280;54354;44.724;11.284;2023-02-20T16:19:52;102438.22;;;20.39
67509;BMP280;54354;44.724;11.284;2023-02-20T16:22:18;102430.28;;;20.36
67509;BMP280;54354;44.724;11.284;2023-02-20T16:24:44;102428.00;;;20.34
67509;BMP280;54354;44.724;11.284;2023-02-20T16:27:18;102424.50;;;20.25
67509;BMP280;54354;44.724;11.284;2023-02-20T16:29:44;102426.63;;;20.30
67509;BMP280;54354;44.724;11.284;2023-02-20T16:32:19;102426.44;;;20.24
67509;BMP280;54354;44.724;11.284;2023-02-20T16:34:46;102430.50;;;20.29
67509;BMP280;54354;44.724;11.284;2023-02-20T16:37:12;102428.66;;;20.26
67509;BMP280;54354;44.724;11.284;2023-02-20T16:39:38;102432.22;;;20.23
67509;BMP280;54354;44.724;11.284;2023-02-20T16:42:17;102429.66;;;20.19
67509;BMP280;54354;44.724;11.284;2023-02-20T16:44:44;102431.47;;;20.22
67509;BMP280;54354;44.724;11.284;2023-02-20T16:47:13;102432.47;;;20.16
67509;BMP280;54354;44.724;11.284;2023-02-20T16:49:38;102434.81;;;20.13
67509;BMP280;54354;44.724;11.284;2023-02-20T16:52:26;102432.47;;;20.16
67509;BMP280;54354;44.724;11.284;2023-02-20T16:54:53;102437.41;;;20.04
67509;BMP280;54354;44.724;11.284;2023-02-20T16:57:19;102443.34;;;19.99
67509;BMP280;54354;44.724;11.284;2023-02-20T16:59:53;102443.66;;;19.89
67509;BMP280;54354;44.724;11.284;2023-02-20T17:02:23;102446.00;;;19.86
67509;BMP280;54354;44.724;11.284;2023-02-20T17:04:49;102446.00;;;19.86
67509;BMP280;54354;44.724;11.284;2023-02-20T17:07:15;102450.03;;;19.82
67509;BMP280;54354;44.724;11.284;2023-02-20T17:09:42;102448.25;;;19.75
67509;BMP280;54354;44.724;11.284;2023-02-20T17:12:08;102444.59;;;19.69
67509;BMP280;54354;44.724;11.284;2023-02-20T17:14:34;102451.25;;;19.65